Search for airport 
image banner adimage banner ad
image banner ad

SEVL - San Pablo

Located in , Ecuador

ICAO - , IATA -

Data provided by Airmate  

General information

Coordinates: S0°56'40" W79°18'54"
Elevation is 469 feet MSL.
 
View others Airports in Los Rios

Operational data

Open for public use
Current time UTC:
Current local time:
METAR: SELT 211600Z 19008KT 9999 SCT026 BKN100 15/08 Q1028
TAF: SELT 211040Z 2112/2212 18015KT 9999 SCT030 SCT100 PROB30 TEMPO 2120/2122 TSRA FEW026CB SCT030 BKN100 BECMG 2122/2124 18005KT BKN030 BKN100 BECMG 2206/2208 SCT010 BKN020 TX17/2119Z TN07/2211Z
View NOTAMs / SUP AIP / TFR affecting this airport [VIEW]
Communications frequencies: [VIEW]

Runways:

RWY identifierQFULength (ft)Width (ft)SurfaceLDA (ft)
02328146UNK
20328146UNK

Airport contact information

Address: Ecuador

Satellite view of SEVL